createdAt,value
2022-10-12T00:00:05.656Z,100.00
2022-10-12T00:02:40.959Z,100.00
2022-10-12T00:05:09.560Z,100.00
2022-10-12T00:07:39.142Z,100.00
2022-10-12T00:10:08.013Z,100.00
2022-10-12T00:12:35.951Z,100.00
2022-10-12T00:15:03.927Z,100.00
2022-10-12T00:17:31.846Z,100.00
2022-10-12T00:19:59.673Z,100.00
2022-10-12T00:22:27.584Z,100.00
2022-10-12T00:29:19.786Z,100.00
2022-10-12T00:31:47.626Z,100.00
2022-10-12T00:34:15.481Z,100.00
2022-10-12T00:36:43.381Z,100.00
2022-10-12T00:39:11.796Z,100.00
2022-10-12T00:41:42.166Z,100.00
2022-10-12T00:44:37.528Z,100.00
2022-10-12T00:47:10.818Z,100.00
2022-10-12T00:49:38.855Z,100.00
2022-10-12T00:52:12.287Z,100.00
2022-10-12T00:54:45.146Z,100.00
2022-10-12T00:57:15.735Z,100.00
2022-10-12T00:59:47.273Z,100.00
2022-10-12T01:02:15.803Z,100.00
2022-10-12T01:04:44.503Z,100.00
2022-10-12T01:07:12.846Z,100.00
2022-10-12T01:09:40.807Z,100.00
2022-10-12T01:12:09.545Z,100.00
2022-10-12T01:14:37.821Z,100.00
2022-10-12T01:17:19.115Z,100.00
2022-10-12T01:20:18.414Z,100.00
2022-10-12T01:22:57.855Z,100.00
2022-10-12T01:25:43.717Z,100.00
2022-10-12T01:28:19.750Z,100.00
2022-10-12T01:30:56.897Z,100.00
2022-10-12T01:33:33.415Z,100.00
2022-10-12T01:36:07.940Z,100.00
2022-10-12T01:38:49.475Z,100.00
2022-10-12T01:41:23.028Z,100.00
2022-10-12T01:43:52.606Z,100.00
2022-10-12T01:46:47.329Z,100.00
2022-10-12T01:49:18.146Z,100.00
2022-10-12T01:52:00.776Z,100.00
2022-10-12T01:54:40.346Z,100.00
2022-10-12T01:57:18.117Z,100.00
2022-10-12T01:59:55.842Z,100.00
2022-10-12T02:02:31.209Z,100.00
2022-10-12T02:05:03.702Z,100.00
2022-10-12T02:07:42.257Z,100.00
2022-10-12T02:10:14.336Z,100.00
2022-10-12T02:12:44.824Z,100.00
2022-10-12T02:15:14.474Z,100.00
2022-10-12T02:17:47.904Z,100.00
2022-10-12T02:20:18.744Z,100.00
2022-10-12T02:22:50.042Z,100.00
2022-10-12T02:25:22.665Z,100.00
2022-10-12T02:27:56.787Z,100.00
2022-10-12T02:30:25.047Z,100.00
2022-10-12T02:32:59.033Z,100.00
2022-10-12T02:35:36.057Z,100.00
2022-10-12T02:38:10.681Z,100.00
2022-10-12T02:40:42.899Z,100.00
2022-10-12T02:43:16.806Z,100.00
2022-10-12T02:45:47.917Z,100.00
2022-10-12T02:48:20.973Z,100.00
2022-10-12T02:50:52.490Z,100.00
2022-10-12T02:53:21.807Z,100.00
2022-10-12T02:55:50.724Z,100.00
2022-10-12T02:58:19.016Z,100.00
2022-10-12T03:00:47.938Z,100.00
2022-10-12T03:03:17.511Z,100.00
2022-10-12T03:05:45.908Z,100.00
2022-10-12T03:08:13.850Z,100.00
2022-10-12T03:10:41.747Z,100.00
2022-10-12T03:13:09.636Z,100.00
2022-10-12T03:15:37.603Z,100.00
2022-10-12T03:18:05.547Z,100.00
2022-10-12T03:20:34.814Z,100.00
2022-10-12T03:23:02.676Z,100.00
2022-10-12T03:25:30.831Z,100.00
2022-10-12T03:27:58.698Z,100.00
2022-10-12T03:30:26.573Z,100.00
2022-10-12T03:32:54.380Z,100.00
2022-10-12T03:35:22.392Z,100.00
2022-10-12T03:37:51.636Z,100.00
2022-10-12T03:40:19.419Z,100.00
2022-10-12T03:42:47.249Z,100.00
2022-10-12T03:45:15.127Z,100.00
2022-10-12T03:47:43.107Z,100.00
2022-10-12T03:50:11.138Z,100.00
2022-10-12T03:52:38.980Z,100.00
2022-10-12T03:55:09.093Z,100.00
2022-10-12T03:57:37.273Z,100.00
2022-10-12T04:00:06.469Z,100.00
2022-10-12T04:02:39.231Z,100.00
2022-10-12T04:05:07.590Z,100.00
2022-10-12T04:07:36.369Z,100.00
2022-10-12T04:10:04.951Z,100.00
2022-10-12T04:12:34.285Z,100.00
2022-10-12T04:15:02.157Z,100.00
2022-10-12T04:17:30.037Z,100.00
2022-10-12T04:19:58.038Z,100.00
2022-10-12T04:22:25.978Z,100.00
2022-10-12T04:24:53.930Z,100.00
2022-10-12T04:27:21.749Z,100.00
2022-10-12T04:29:50.983Z,100.00
2022-10-12T04:32:18.825Z,100.00
2022-10-12T04:34:46.742Z,100.00
2022-10-12T04:37:14.637Z,100.00
2022-10-12T04:39:42.604Z,100.00
2022-10-12T04:42:10.483Z,100.00
2022-10-12T04:44:38.353Z,100.00
2022-10-12T04:47:07.550Z,100.00
2022-10-12T04:49:35.429Z,100.00
2022-10-12T04:52:03.232Z,100.00
2022-10-12T04:54:32.747Z,100.00
2022-10-12T04:57:00.846Z,100.00
2022-10-12T04:59:28.700Z,100.00
2022-10-12T05:01:56.634Z,100.00
2022-10-12T05:04:26.287Z,100.00
2022-10-12T05:06:54.703Z,100.00
2022-10-12T05:09:22.516Z,100.00
2022-10-12T05:11:50.374Z,100.00
2022-10-12T05:14:18.213Z,100.00
2022-10-12T05:16:46.017Z,100.00
2022-10-12T05:19:13.874Z,100.00
2022-10-12T05:21:43.084Z,100.00
2022-10-12T05:24:11.899Z,100.00
2022-10-12T05:26:39.784Z,100.00
2022-10-12T05:29:07.722Z,100.00
2022-10-12T05:31:35.535Z,100.00
2022-10-12T05:34:03.685Z,100.00
2022-10-12T05:36:31.604Z,100.00
2022-10-12T05:39:00.887Z,100.00
2022-10-12T05:41:28.962Z,100.00
2022-10-12T05:43:56.780Z,100.00
2022-10-12T05:46:24.772Z,100.00
2022-10-12T05:48:52.805Z,100.00
2022-10-12T05:51:24.112Z,100.00
2022-10-12T05:53:54.852Z,100.00
2022-10-12T05:56:24.242Z,100.00
2022-10-12T05:58:52.140Z,100.00
2022-10-12T06:01:19.977Z,100.00
2022-10-12T06:03:47.802Z,100.00
2022-10-12T06:06:15.800Z,100.00
2022-10-12T06:08:43.576Z,100.00
2022-10-12T06:11:11.430Z,100.00
2022-10-12T06:13:40.675Z,100.00
2022-10-12T06:16:08.910Z,100.00
2022-10-12T06:18:36.821Z,100.00
2022-10-12T06:21:28.488Z,100.00
2022-10-12T06:23:52.786Z,100.00
2022-10-12T06:26:20.702Z,100.00
2022-10-12T06:28:49.894Z,100.00
2022-10-12T06:31:17.790Z,100.00
2022-10-12T06:33:45.636Z,100.00
2022-10-12T06:36:13.468Z,100.00
2022-10-12T06:38:41.323Z,100.00
2022-10-12T06:41:09.149Z,100.00
2022-10-12T06:43:37.001Z,100.00
2022-10-12T06:46:06.445Z,100.00
2022-10-12T06:48:34.300Z,100.00
2022-10-12T06:51:02.368Z,100.00
2022-10-12T06:53:32.854Z,100.00
2022-10-12T06:56:00.597Z,100.00
2022-10-12T06:58:28.411Z,100.00
2022-10-12T07:00:56.366Z,100.00
2022-10-12T07:03:25.613Z,100.00
2022-10-12T07:05:53.543Z,100.00
2022-10-12T07:08:21.575Z,100.00
2022-10-12T07:10:49.447Z,100.00
2022-10-12T07:13:17.290Z,100.00
2022-10-12T07:15:50.228Z,100.00
2022-10-12T07:18:18.013Z,100.00
2022-10-12T07:20:47.420Z,100.00
2022-10-12T07:23:15.346Z,100.00
2022-10-12T07:25:48.923Z,100.00
2022-10-12T07:28:17.144Z,100.00
2022-10-12T07:30:45.167Z,100.00
2022-10-12T07:33:13.251Z,100.00
2022-10-12T07:36:03.211Z,100.00
2022-10-12T07:38:30.591Z,100.00
2022-10-12T07:41:00.910Z,100.00
2022-10-12T07:43:29.286Z,100.00
2022-10-12T07:45:57.570Z,100.00
2022-10-12T07:48:25.537Z,100.00
2022-10-12T07:50:53.361Z,100.00
2022-10-12T07:53:21.335Z,100.00
2022-10-12T07:55:50.728Z,100.00
2022-10-12T07:58:18.583Z,100.00
2022-10-12T08:00:46.447Z,100.00
2022-10-12T08:03:14.304Z,100.00
2022-10-12T08:05:42.312Z,100.00
2022-10-12T08:08:10.209Z,100.00
2022-10-12T08:10:38.298Z,100.00
2022-10-12T08:13:07.452Z,100.00
2022-10-12T08:15:35.278Z,100.00
2022-10-12T08:18:03.146Z,100.00
2022-10-12T08:20:31.000Z,100.00
2022-10-12T08:22:58.925Z,100.00
2022-10-12T08:25:27.086Z,100.00
2022-10-12T08:27:54.941Z,100.00
2022-10-12T08:30:26.890Z,100.00
2022-10-12T08:32:54.828Z,100.00
2022-10-12T08:35:22.820Z,100.00
2022-10-12T08:37:50.676Z,100.00
2022-10-12T08:40:26.660Z,100.00
2022-10-12T08:43:02.052Z,98.65
2022-10-12T08:45:40.988Z,99.85
2022-10-12T08:48:13.775Z,98.44
2022-10-12T08:50:47.447Z,97.23
2022-10-12T08:53:20.360Z,96.71
2022-10-12T08:55:48.275Z,95.80
2022-10-12T08:58:18.521Z,95.29
2022-10-12T09:00:49.886Z,93.55
2022-10-12T09:03:31.587Z,93.12
2022-10-12T09:06:09.073Z,92.02
2022-10-12T09:08:49.155Z,92.57
2022-10-12T09:11:29.667Z,91.92
2022-10-12T09:14:03.917Z,92.33
2022-10-12T09:16:36.901Z,94.66
2022-10-12T09:19:09.281Z,96.29
2022-10-12T09:21:40.724Z,96.57
2022-10-12T09:24:17.575Z,98.56
2022-10-12T09:26:47.771Z,98.76
2022-10-12T09:29:24.421Z,98.58
2022-10-12T09:32:07.506Z,98.98
2022-10-12T09:34:36.777Z,99.41
2022-10-12T09:37:05.663Z,100.00
2022-10-12T09:39:37.689Z,100.00
2022-10-12T09:42:05.630Z,99.19
2022-10-12T09:44:40.008Z,99.02
2022-10-12T09:47:26.945Z,100.00
2022-10-12T09:49:58.377Z,100.00
2022-10-12T09:52:30.671Z,98.95
2022-10-12T09:55:03.659Z,99.81
2022-10-12T09:57:37.015Z,99.76
2022-10-12T10:00:08.781Z,96.92
2022-10-12T10:02:51.657Z,97.65
2022-10-12T10:05:25.983Z,96.87
2022-10-12T10:07:54.736Z,97.43
2022-10-12T10:10:29.674Z,96.97
2022-10-12T10:13:01.491Z,95.67
2022-10-12T10:15:32.589Z,97.17
2022-10-12T10:18:04.707Z,94.85
2022-10-12T10:20:44.534Z,92.18
2022-10-12T10:23:25.712Z,90.74
2022-10-12T10:25:58.857Z,92.39
2022-10-12T10:28:30.453Z,92.96
2022-10-12T10:31:02.726Z,94.65
2022-10-12T10:33:33.344Z,95.62
2022-10-12T10:36:04.641Z,94.72
2022-10-12T10:38:38.646Z,95.02
2022-10-12T10:41:07.846Z,93.19
2022-10-12T10:43:36.567Z,92.87
2022-10-12T10:46:05.801Z,90.74
2022-10-12T10:48:51.357Z,88.99
2022-10-12T10:51:19.346Z,89.60
2022-10-12T10:53:49.825Z,88.01
2022-10-12T10:56:20.314Z,85.03
2022-10-12T10:58:52.522Z,82.46
2022-10-12T11:01:25.233Z,84.27
2022-10-12T11:03:59.793Z,86.88
2022-10-12T11:06:36.400Z,88.32
2022-10-12T11:09:08.210Z,87.22
2022-10-12T11:11:39.130Z,85.61
2022-10-12T11:14:15.524Z,85.22
2022-10-12T11:16:48.149Z,86.12
2022-10-12T11:19:27.461Z,87.65
2022-10-12T11:21:57.959Z,86.97
2022-10-12T11:24:27.965Z,85.15
2022-10-12T11:27:02.369Z,87.19
2022-10-12T11:29:30.593Z,87.61
2022-10-12T11:32:04.231Z,87.39
2022-10-12T11:34:43.900Z,86.81
2022-10-12T11:37:20.009Z,86.59
2022-10-12T11:39:53.673Z,83.17
2022-10-12T11:42:30.382Z,82.25
2022-10-12T11:45:00.630Z,79.95
2022-10-12T11:47:37.115Z,80.38
2022-10-12T11:50:15.714Z,81.36
2022-10-12T11:52:48.210Z,79.45
2022-10-12T11:55:43.251Z,79.88
2022-10-12T11:58:15.956Z,79.87
2022-10-12T12:01:00.189Z,78.76
2022-10-12T12:03:34.936Z,78.85
2022-10-12T12:06:38.155Z,80.93
2022-10-12T12:09:21.927Z,79.00
2022-10-12T12:11:49.887Z,78.78
2022-10-12T12:15:09.592Z,80.65
2022-10-12T12:17:39.031Z,80.93
2022-10-12T12:20:51.563Z,79.23
2022-10-12T12:23:22.226Z,80.96
2022-10-12T12:26:06.529Z,80.30
2022-10-12T12:28:35.333Z,79.14
2022-10-12T12:31:07.011Z,82.69
2022-10-12T12:33:41.785Z,80.66
2022-10-12T12:36:12.779Z,82.60
2022-10-12T12:38:47.309Z,80.81
2022-10-12T12:41:18.251Z,80.89
2022-10-12T12:43:58.912Z,80.80
2022-10-12T12:47:33.082Z,80.64
2022-10-12T12:50:00.321Z,80.81
2022-10-12T12:52:30.799Z,78.29
2022-10-12T12:55:30.575Z,77.39
2022-10-12T12:58:17.560Z,76.49
2022-10-12T13:00:53.219Z,77.68
2022-10-12T13:03:39.638Z,77.83
2022-10-12T13:06:49.428Z,78.48
2022-10-12T13:09:44.972Z,79.10
2022-10-12T13:12:27.389Z,81.40
2022-10-12T13:15:11.714Z,79.06
2022-10-12T13:17:55.276Z,80.15
2022-10-12T13:20:26.377Z,79.12
2022-10-12T13:22:57.799Z,78.99
2022-10-12T13:25:33.580Z,78.97
2022-10-12T13:28:05.055Z,82.36
2022-10-12T13:30:41.141Z,82.27
2022-10-12T13:33:19.655Z,83.15
2022-10-12T13:35:53.927Z,83.34
2022-10-12T13:38:24.044Z,84.30
2022-10-12T13:40:58.818Z,82.63
2022-10-12T13:43:39.345Z,79.22
2022-10-12T13:46:08.354Z,79.25
2022-10-12T13:51:26.563Z,78.36
2022-10-12T13:53:54.626Z,76.39
2022-10-12T13:56:25.940Z,76.62
2022-10-12T13:58:58.368Z,75.59
2022-10-12T14:01:27.997Z,76.79
2022-10-12T14:04:04.894Z,78.87
2022-10-12T14:06:34.373Z,80.80
2022-10-12T14:09:09.529Z,79.70
2022-10-12T14:11:38.070Z,78.31
2022-10-12T14:14:06.416Z,77.06
2022-10-12T14:16:35.685Z,78.95
2022-10-12T14:19:20.090Z,79.36
2022-10-12T14:21:50.089Z,79.78
2022-10-12T14:24:20.125Z,80.22
2022-10-12T14:26:55.832Z,81.52
2022-10-12T14:29:34.910Z,81.15
2022-10-12T14:32:06.662Z,81.15
2022-10-12T14:34:46.661Z,80.08
2022-10-12T14:37:28.233Z,80.11
2022-10-12T14:40:00.786Z,80.20
2022-10-12T14:42:33.968Z,81.30
2022-10-12T14:45:02.600Z,82.08
2022-10-12T14:47:33.549Z,83.63
2022-10-12T14:50:07.791Z,82.47
2022-10-12T14:52:41.712Z,83.18
2022-10-12T14:55:15.230Z,82.86
2022-10-12T14:57:43.158Z,84.19
2022-10-12T15:00:15.520Z,83.92
2022-10-12T15:02:45.234Z,83.50
2022-10-12T15:05:14.601Z,84.97
2022-10-12T15:07:42.634Z,85.15
2022-10-12T15:10:11.350Z,85.55
2022-10-12T15:12:39.397Z,85.67
2022-10-12T15:15:27.877Z,85.33
2022-10-12T15:17:58.686Z,85.85
2022-10-12T15:20:26.879Z,86.49
2022-10-12T15:22:54.655Z,88.03
2022-10-12T15:25:25.671Z,87.92
2022-10-12T15:27:53.571Z,86.48
2022-10-12T15:30:21.458Z,85.49
2022-10-12T15:32:49.591Z,86.73
2022-10-12T15:35:22.420Z,87.20
2022-10-12T15:37:50.608Z,88.21
2022-10-12T15:40:19.663Z,89.48
2022-10-12T15:42:48.470Z,88.02
2022-10-12T15:45:22.847Z,86.78
2022-10-12T15:47:51.955Z,87.53
2022-10-12T15:50:23.144Z,87.71
2022-10-12T15:52:51.303Z,89.61
2022-10-12T15:55:21.090Z,91.09
2022-10-12T15:57:49.409Z,90.47
2022-10-12T16:00:20.057Z,89.89
2022-10-12T16:02:48.143Z,90.55
2022-10-12T16:05:20.566Z,91.86
2022-10-12T16:07:50.230Z,93.20
2022-10-12T16:10:19.725Z,93.44
2022-10-12T16:12:49.907Z,94.19
2022-10-12T16:15:21.379Z,92.96
2022-10-12T16:17:49.676Z,94.28
2022-10-12T16:20:18.315Z,94.90
2022-10-12T16:22:46.477Z,95.52
2022-10-12T16:25:17.876Z,93.85
2022-10-12T16:27:46.771Z,92.55
2022-10-12T16:30:15.665Z,93.14
2022-10-12T16:32:44.014Z,94.45
2022-10-12T16:35:12.912Z,96.95
2022-10-12T16:37:40.952Z,94.45
2022-10-12T16:40:10.460Z,92.48
2022-10-12T16:42:39.778Z,91.34
2022-10-12T16:45:08.937Z,92.69
2022-10-12T16:47:41.887Z,95.92
2022-10-12T16:50:11.317Z,97.52
2022-10-12T16:52:39.877Z,98.20
2022-10-12T16:55:08.656Z,98.07
2022-10-12T16:57:36.591Z,98.87
2022-10-12T17:00:07.263Z,100.00
2022-10-12T17:02:35.301Z,100.00
2022-10-12T17:05:03.903Z,100.00
2022-10-12T17:07:32.137Z,100.00
2022-10-12T17:09:59.976Z,100.00
2022-10-12T17:12:28.247Z,100.00
2022-10-12T17:14:56.188Z,100.00
2022-10-12T17:17:25.393Z,100.00
2022-10-12T17:19:53.297Z,100.00
2022-10-12T17:22:21.137Z,99.51
2022-10-12T17:24:49.117Z,100.00
2022-10-12T17:27:17.337Z,100.00
2022-10-12T17:29:45.466Z,100.00
2022-10-12T17:32:14.229Z,100.00
2022-10-12T17:34:45.653Z,98.75
2022-10-12T17:37:14.633Z,97.55
2022-10-12T17:39:45.038Z,98.27
2022-10-12T17:42:12.789Z,95.97
2022-10-12T17:44:40.608Z,99.71
2022-10-12T17:47:08.569Z,100.00
2022-10-12T17:49:36.455Z,100.00
2022-10-12T17:52:06.487Z,100.00
2022-10-12T17:54:34.356Z,100.00
2022-10-12T17:57:02.252Z,100.00
2022-10-12T17:59:30.097Z,100.00
2022-10-12T18:01:57.946Z,100.00
2022-10-12T18:04:25.792Z,100.00
2022-10-12T18:06:53.694Z,100.00
2022-10-12T18:09:22.915Z,100.00
2022-10-12T18:11:50.703Z,100.00
2022-10-12T18:14:19.018Z,100.00
2022-10-12T18:16:46.891Z,100.00
2022-10-12T18:19:14.913Z,100.00
2022-10-12T18:21:42.763Z,100.00
2022-10-12T18:24:16.975Z,100.00
2022-10-12T18:26:48.185Z,100.00
2022-10-12T18:29:19.147Z,100.00
2022-10-12T18:31:47.569Z,100.00
2022-10-12T18:34:15.403Z,100.00
2022-10-12T18:36:43.247Z,100.00
2022-10-12T18:39:11.244Z,100.00
2022-10-12T18:41:39.158Z,100.00
2022-10-12T18:44:09.151Z,100.00
2022-10-12T18:46:37.499Z,100.00
2022-10-12T18:49:08.172Z,100.00
2022-10-12T18:51:38.487Z,100.00
2022-10-12T18:54:07.396Z,100.00
2022-10-12T18:56:37.165Z,100.00
2022-10-12T18:59:05.692Z,100.00
2022-10-12T19:01:35.426Z,100.00
2022-10-12T19:04:03.834Z,100.00
2022-10-12T19:06:34.074Z,100.00
2022-10-12T19:09:02.313Z,100.00
2022-10-12T19:11:31.163Z,100.00
2022-10-12T19:14:01.292Z,100.00
2022-10-12T19:16:30.206Z,100.00
2022-10-12T19:19:01.429Z,100.00
2022-10-12T19:21:29.793Z,100.00
2022-10-12T19:23:57.879Z,100.00
2022-10-12T19:26:27.959Z,100.00
2022-10-12T19:28:58.277Z,100.00
2022-10-12T19:31:28.539Z,100.00
2022-10-12T19:33:57.836Z,100.00
2022-10-12T19:36:28.156Z,100.00
2022-10-12T19:38:57.286Z,100.00
2022-10-12T19:41:25.832Z,100.00
2022-10-12T19:43:54.216Z,100.00
2022-10-12T19:46:22.307Z,100.00
2022-10-12T19:48:51.337Z,100.00
2022-10-12T19:51:20.594Z,100.00
2022-10-12T19:53:53.300Z,100.00
2022-10-12T19:56:22.253Z,100.00
2022-10-12T19:58:52.902Z,100.00
2022-10-12T20:01:23.129Z,100.00
2022-10-12T20:03:51.671Z,100.00
2022-10-12T20:06:21.173Z,100.00
2022-10-12T20:08:52.765Z,100.00
2022-10-12T20:11:24.506Z,100.00
2022-10-12T20:13:53.275Z,100.00
2022-10-12T20:16:21.710Z,100.00
2022-10-12T20:18:50.412Z,100.00
2022-10-12T20:21:21.031Z,100.00
2022-10-12T20:23:51.509Z,100.00
2022-10-12T20:26:21.867Z,100.00
2022-10-12T20:28:50.408Z,100.00
2022-10-12T20:31:19.394Z,100.00
2022-10-12T20:33:51.561Z,100.00
2022-10-12T20:36:22.430Z,100.00
2022-10-12T20:38:51.911Z,100.00
2022-10-12T20:41:21.600Z,100.00
2022-10-12T20:43:49.804Z,100.00
2022-10-12T20:46:19.053Z,100.00
2022-10-12T20:48:47.740Z,100.00
2022-10-12T20:51:20.325Z,100.00
2022-10-12T20:53:48.209Z,100.00
2022-10-12T20:56:17.472Z,100.00
2022-10-12T20:58:45.367Z,100.00
2022-10-12T21:01:15.595Z,100.00
2022-10-12T21:03:43.677Z,100.00
2022-10-12T21:06:13.728Z,100.00
2022-10-12T21:08:41.773Z,100.00
2022-10-12T21:11:10.774Z,100.00
2022-10-12T21:13:41.251Z,100.00
2022-10-12T21:16:09.430Z,100.00
2022-10-12T21:18:38.385Z,100.00
2022-10-12T21:21:11.397Z,100.00
2022-10-12T21:23:39.688Z,100.00
2022-10-12T21:26:12.230Z,100.00
2022-10-12T21:28:41.711Z,100.00
2022-10-12T21:31:10.037Z,100.00
2022-10-12T21:33:39.914Z,100.00
2022-10-12T21:36:09.963Z,100.00
2022-10-12T21:38:38.179Z,100.00
2022-10-12T21:41:06.890Z,100.00
2022-10-12T21:43:35.453Z,100.00
2022-10-12T21:46:06.077Z,100.00
2022-10-12T21:48:34.200Z,100.00
2022-10-12T21:51:03.111Z,100.00
2022-10-12T21:53:31.993Z,100.00
2022-10-12T21:55:59.823Z,100.00
2022-10-12T21:58:27.700Z,100.00
2022-10-12T22:01:07.003Z,100.00
2022-10-12T22:03:35.173Z,100.00
2022-10-12T22:06:03.286Z,100.00
2022-10-12T22:08:31.195Z,100.00
2022-10-12T22:11:04.117Z,100.00
2022-10-12T22:13:31.973Z,100.00
2022-10-12T22:16:04.440Z,100.00
2022-10-12T22:18:33.757Z,100.00
2022-10-12T22:21:03.985Z,100.00
2022-10-12T22:23:32.503Z,100.00
2022-10-12T22:26:06.348Z,100.00
2022-10-12T22:28:34.957Z,100.00
2022-10-12T22:31:06.495Z,100.00
2022-10-12T22:33:35.779Z,100.00
2022-10-12T22:36:06.821Z,100.00
2022-10-12T22:38:35.900Z,100.00
2022-10-12T22:41:06.541Z,100.00
2022-10-12T22:43:39.177Z,100.00
2022-10-12T22:46:07.522Z,100.00
2022-10-12T22:48:38.620Z,100.00
2022-10-12T22:51:08.104Z,100.00
2022-10-12T22:53:37.248Z,100.00
2022-10-12T22:56:07.514Z,100.00
2022-10-12T22:58:36.563Z,100.00
2022-10-12T23:01:06.952Z,100.00
2022-10-12T23:03:37.663Z,100.00
2022-10-12T23:06:12.104Z,100.00
2022-10-12T23:08:40.230Z,100.00
2022-10-12T23:11:10.248Z,100.00
2022-10-12T23:13:39.373Z,100.00
2022-10-12T23:16:09.791Z,100.00
2022-10-12T23:18:39.881Z,100.00
2022-10-12T23:21:09.920Z,100.00
2022-10-12T23:23:38.786Z,100.00
2022-10-12T23:26:08.933Z,100.00
2022-10-12T23:28:36.784Z,100.00
2022-10-12T23:31:07.732Z,100.00
2022-10-12T23:33:35.772Z,100.00
2022-10-12T23:36:07.518Z,100.00
2022-10-12T23:38:36.763Z,100.00
2022-10-12T23:41:04.860Z,100.00
2022-10-12T23:43:33.546Z,100.00
2022-10-12T23:46:02.788Z,100.00
2022-10-12T23:48:31.155Z,100.00
2022-10-12T23:50:59.353Z,100.00
2022-10-12T23:53:29.062Z,100.00
2022-10-12T23:55:57.313Z,100.00
2022-10-12T23:58:25.093Z,100.00
